Aviation Digital Data Service (ADDS)

Output produced by METARs form (2239 UTC 30 March 2017)
found at http://www.aviationweather.gov/adds/metars/
 
UTDD 302230Z 15001MPS 9999 FEW066CB 08/06 Q1021 R09/D NOSIG RMK QFE697/0930
TAF UTDD 302100Z 3022/3110 VRB02MPS 6000 SCT050CB BKN100 
     PROB40 
     TEMPO 3022/3110 VRB08MPS 1900 TSRA BR
       
UTAA 302200Z 11009KT 9999 NSC 10/07 Q1016 R88/70D NOSIG
TAF UTAA 301630Z 3018/3118 10016KT 5000 SCT030 SCT050CB 530009 
     TEMPO 3018/3103 16010KT 3000 HZ 
     BECMG 3110/3112 34016KT BKN010 
     PROB40 
     TEMPO 3112/3118 VRB26KT 2000 TSRA
       
UTAK 302200Z 00000KT CAVOK 04/03 Q1016 R16R/CLRD70 NOSIG
TAF UTAK 301630Z 3018/3118 30018G28KT 6000 SKC 530009 
     TEMPO 3018/3023 18016KT 4000 BR BKN007 
     TEMPO 3023/3105 24018G28KT 2000 BR BKN002 
     BECMG 3105/3107 33026KT 5000 DRDU BKN015 SCT040CB
       
UTAM 302200Z 15004KT 6000 SKC 11/07 Q1022 NOSIG RMK SC07
TAF UTAM 301630Z 3018/3118 12014KT 5000 SCT020 BKN100 530007 
     TEMPO 3018/3024 06012KT 
     TEMPO 3100/3104 VRB04KT 2500 BR SCT010 
     BECMG 3104/3106 15016KT 9999 SCT030
       
UTAT 302200Z 13008KT CAVOK 05/M01 Q1021 R08/CLRD70 NOSIG
TAF UTAT 301632Z 3018/3118 10012KT CAVOK 530005 
     TEMPO 3018/3024 13014KT
       
UTAV 302200Z 04004KT 7000 SKC 08/00 Q1023 NOSIG
TAF UTAV 301630Z 3018/3118 34014KT 5000 SCT050 530005 
     TEMPO 3018/3024 VRBO4KT 
     TEMPO 3100/3106 04014G24KT
       
UTDD 302230Z 15001MPS 9999 FEW066CB 08/06 Q1021 R09/D NOSIG RMK QFE697/0930
TAF UTDD 302100Z 3022/3110 VRB02MPS 6000 SCT050CB BKN100 
     PROB40 
     TEMPO 3022/3110 VRB08MPS 1900 TSRA BR
       
UTDK 302230Z 02003MPS 9999 NSC 11/08 Q1021 R01/09//70 RMK QFE708/0944
TAF UTDK 302100Z 3022/3107 VRB02MPS 6000 SCT050CB BKN100 
     PROB40 
     TEMPO 3022/3107 VRB08MPS 1900 TSRA BR
       
UTDL 302230Z 11001MPS 7000 FEW230 08/06 Q1023 88CLRD70 NOSIG RMK QFE728/0971
TAF UTDL 302100Z 3022/3107 07004MPS 4000 BR SCT010 BKN040 
     TEMPO 3022/3104 VRB03MPS 2100 BR SCT005 
     TEMPO 3104/3107 07008MPS
       
UTDT 302230Z 09003MPS 9999 FEW130 12/10 Q1020 35////// RMK QFE725/0967
TAF UTDT 302100Z 3022/3107 VRB02MPS 6000 SCT050CB BKN100 
     PROB40 
     TEMPO 3022/3107 VRB08MPS 1900 TSRA BR
       
UTFA 302200Z 18003KT 8000 NSC 08/06 Q1024
TAF UTFA 302215Z 3022/3107 18010KT 7000 NSC 
     TEMPO 3022/3103 VRB02KT 4000 BR SCT050CB
       
UTFF 302200Z 22004KT 9000 NSC 08/06 Q1024 R18/CLRD70
TAF UTFF 302100Z 3022/3107 21010KT 7000 SCT050CB 
     TEMPO 3022/3104 14008KT 3000 BR BKN050CB
       
UTFN 302200Z 32006KT 9999 NSC 10/06 Q1024 R28/CLRD70 NOSIG
TAF UTFN 301700Z 3018/3118 35010KT 9999 SCT050CB 
     TEMPO 3018/3024 VRB02KT 5000 BR BKN025CB
       
UTNN 302200Z 13008KT CAVOK 05/M06 Q1021 R33/CLRD60 NOSIG
TAF UTNN 301700Z 3018/3118 16008KT CAVOK 
     TEMPO 3018/3104 VRB04KT
       
UTNU 302200Z 11006KT CAVOK 04/M01 Q1022 R31/CLRD70 NOSIG
TAF UTNU 301701Z 3018/3118 12010G20KT 7000 NSC 
     TEMPO 3018/3024 VRB04KT 2000 BR BKN030CB BKN100
       
UTSA 302200Z 07002KT 8000 NSC 06/02 Q1021 R25/CLRD70 NOSIG
TAF UTSA 302301Z 3000/3024 VRB03KT 7000 NSC 
     TEMPO 3000/3004 31008KT 2000 BR SCT004 
     TEMPO 3004/3016 31014G24KT SCT033CB 
     PROB40 
     TEMPO 3004/3016 -TSRA BKN033CB
       
UTSB 302200Z 33006KT CAVOK 07/02 Q1022 R01/CLRD70 NOSIG
TAF UTSB 301700Z 3018/3118 VRB03KT 7000 NSC 
     TEMPO 3018/3024 34012KT 
     TEMPO 3100/3106 05012KT 3000 BR SCT033
       
UTSK 302200Z VRB02KT CAVOK 07/03 Q1021 R34/CLRD70
UTSS 302200Z 13008KT 6000 NSC 08/05 Q1022 R27/70D NOSIG
TAF UTSS 301655Z 3018/3118 10010G20KT 6000 NSC 
     TEMPO 3018/3024 0600 FG VV002
       
UTST 302200Z 05003KT 020V080 CAVOK 11/08 Q1020 R88/CLRD70 NOSIG
TAF UTST 301700Z 3018/3118 20008G18KT 6000 SCT050CB SCT100 
     TEMPO 3018/3105 VRB19G29KT 2000 TSRA SQ BKN005 BKN040CB
       
UTTT 302200Z VRB02KT CAVOK 07/04 Q1023 R08R/CLRD70 NOSIG
TAF UTTT 301700Z 3018/3118 05012KT 7000 NSC 
     TEMPO 3018/3102 2000 BR FU
       
UTDL 302230Z 11001MPS 7000 FEW230 08/06 Q1023 88CLRD70 NOSIG RMK QFE728/0971
TAF UTDL 302100Z 3022/3107 07004MPS 4000 BR SCT010 BKN040 
     TEMPO 3022/3104 VRB03MPS 2100 BR SCT005 
     TEMPO 3104/3107 07008MPS